Time;durP1;ratioP1;P1;durP2;ratioP2;P2;SDS_P1;SDS_P2;PMS_P1;PMS_P2;Temp;Humidity;BMP_temperature;BMP_pressure;BME280_temperature;BME280_humidity;BME280_pressure;Samples;Min_cycle;Max_cycle;Signal;HPM_P1;HPM_P2
2021/01/06 00:02:18;;;;;;;21.70;9.60;;;;;;;;;;5052383;28;20059;-67
2021/01/06 00:04:43;;;;;;;25.08;10.50;;;;;;;;;;5049184;28;20036;-64
2021/01/06 00:07:08;;;;;;;28.83;11.07;;;;;;;;;;5049094;28;20029;-64
2021/01/06 00:09:33;;;;;;;20.90;10.50;;;;;;;;;;5048171;28;20381;-67
2021/01/06 00:11:59;;;;;;;28.33;11.10;;;;;;;;;;5047839;28;20062;-65
2021/01/06 00:14:24;;;;;;;23.10;10.13;;;;;;;;;;5049787;28;20021;-65
2021/01/06 00:16:53;;;;;;;26.42;12.40;;;;;;;;;;5054055;28;20069;-64
2021/01/06 00:19:18;;;;;;;28.67;11.27;;;;;;;;;;5051580;28;20146;-65
2021/01/06 00:21:44;;;;;;;30.50;13.35;;;;;;;;;;5052135;28;20104;-66
2021/01/06 00:24:09;;;;;;;27.95;12.32;;;;;;;;;;5047353;28;20661;-65
2021/01/06 00:26:35;;;;;;;25.98;12.00;;;;;;;;;;5052593;28;20032;-66
2021/01/06 00:29:00;;;;;;;23.42;10.88;;;;;;;;;;5054869;28;20021;-67
2021/01/06 00:31:26;;;;;;;26.92;11.48;;;;;;;;;;5049489;28;20034;-65
2021/01/06 00:33:51;;;;;;;28.10;11.38;;;;;;;;;;5050204;28;20627;-64
2021/01/06 00:36:18;;;;;;;23.48;11.07;;;;;;;;;;5057363;28;20027;-65
2021/01/06 00:38:43;;;;;;;21.65;9.73;;;;;;;;;;5048158;28;20021;-65
2021/01/06 00:41:08;;;;;;;25.95;11.35;;;;;;;;;;5051214;28;20073;-65
2021/01/06 00:43:33;;;;;;;28.42;12.45;;;;;;;;;;5054788;28;20048;-65
2021/01/06 00:45:58;;;;;;;24.27;11.43;;;;;;;;;;5048249;28;20536;-64
2021/01/06 00:48:24;;;;;;;23.60;11.30;;;;;;;;;;5052944;28;20489;-65
2021/01/06 00:50:49;;;;;;;31.95;11.60;;;;;;;;;;5047637;28;20032;-65
2021/01/06 00:53:22;;;;;;;30.30;11.93;;;;;;;;;;5049926;28;20496;-65
2021/01/06 00:55:48;;;;;;;27.00;12.35;;;;;;;;;;5051665;28;20089;-64
2021/01/06 00:58:13;;;;;;;27.83;11.68;;;;;;;;;;5053455;28;20028;-64
2021/01/06 01:00:39;;;;;;;23.85;10.85;;;;;;;;;;5049137;28;20016;-66
2021/01/06 01:03:04;;;;;;;26.10;10.85;;;;;;;;;;5056424;28;20076;-64
2021/01/06 01:05:30;;;;;;;23.17;10.73;;;;;;;;;;5051503;28;20469;-64
2021/01/06 01:07:56;;;;;;;26.60;11.35;;;;;;;;;;5048763;28;20112;-65
2021/01/06 01:10:35;;;;;;;26.52;11.75;;;;;;;;;;5050979;28;20128;-64
2021/01/06 01:13:02;;;;;;;24.40;11.57;;;;;;;;;;5049942;28;20067;-65
2021/01/06 01:15:28;;;;;;;24.15;11.25;;;;;;;;;;5050883;28;20493;-65
2021/01/06 01:17:54;;;;;;;27.40;10.73;;;;;;;;;;5049119;28;20025;-65
2021/01/06 01:20:19;;;;;;;25.20;10.98;;;;;;;;;;5048339;28;20132;-65
2021/01/06 01:22:45;;;;;;;30.23;12.15;;;;;;;;;;5047262;28;20033;-65
2021/01/06 01:25:11;;;;;;;25.98;10.85;;;;;;;;;;5047811;28;20017;-65
2021/01/06 01:27:37;;;;;;;23.48;10.50;;;;;;;;;;5047959;28;20031;-65
2021/01/06 01:30:02;;;;;;;22.95;10.75;;;;;;;;;;5050491;28;20021;-65
2021/01/06 01:32:28;;;;;;;22.92;10.13;;;;;;;;;;5048069;28;20031;-65
2021/01/06 01:34:53;;;;;;;22.27;10.18;;;;;;;;;;5046409;28;20017;-64
2021/01/06 01:37:18;;;;;;;26.13;10.88;;;;;;;;;;5048377;28;20504;-65
2021/01/06 01:39:44;;;;;;;23.27;9.77;;;;;;;;;;5048890;28;20033;-64
2021/01/06 01:42:10;;;;;;;23.83;9.93;;;;;;;;;;5051305;28;20097;-66
2021/01/06 01:44:53;;;;;;;25.55;10.38;;;;;;;;;;5046143;28;20097;-64
2021/01/06 01:47:21;;;;;;;22.52;9.95;;;;;;;;;;5048068;28;20035;-64
2021/01/06 01:49:47;;;;;;;24.42;10.40;;;;;;;;;;5050253;28;20090;-64
2021/01/06 01:52:44;;;;;;;22.60;10.38;;;;;;;;;;5044950;28;20025;-64
2021/01/06 01:55:12;;;;;;;22.63;10.45;;;;;;;;;;5019076;28;20041;-65
2021/01/06 01:57:40;;;;;;;21.38;10.43;;;;;;;;;;5052965;28;20560;-65
2021/01/06 02:00:06;;;;;;;21.33;10.77;;;;;;;;;;5054103;28;20408;-64
2021/01/06 02:02:33;;;;;;;25.10;11.15;;;;;;;;;;5051003;28;20059;-65
2021/01/06 02:05:05;;;;;;;21.77;10.82;;;;;;;;;;5051757;28;20023;-65
2021/01/06 02:07:32;;;;;;;28.30;10.90;;;;;;;;;;5055671;28;20066;-64
2021/01/06 02:10:00;;;;;;;24.63;11.50;;;;;;;;;;5052509;28;20037;-64
2021/01/06 02:12:30;;;;;;;23.27;11.23;;;;;;;;;;5055127;28;20016;-64
2021/01/06 02:15:09;;;;;;;26.48;12.63;;;;;;;;;;5053034;28;20025;-64
2021/01/06 02:17:34;;;;;;;24.73;11.43;;;;;;;;;;5055465;28;20505;-64
2021/01/06 02:20:00;;;;;;;23.70;10.93;;;;;;;;;;5052284;28;20283;-64
2021/01/06 02:22:25;;;;;;;21.38;10.40;;;;;;;;;;5053225;28;20070;-64
2021/01/06 02:24:51;;;;;;;22.67;10.90;;;;;;;;;;5051731;28;20021;-64
2021/01/06 02:27:17;;;;;;;25.75;11.35;;;;;;;;;;5051941;28;20027;-65
2021/01/06 02:29:43;;;;;;;24.52;11.35;;;;;;;;;;5055887;28;20059;-64
2021/01/06 02:32:08;;;;;;;24.40;11.52;;;;;;;;;;5054844;28;20052;-64
2021/01/06 02:34:35;;;;;;;25.23;11.25;;;;;;;;;;5051651;28;20016;-64
2021/01/06 02:37:00;;;;;;;25.30;12.13;;;;;;;;;;5046355;28;20448;-65
2021/01/06 02:39:25;;;;;;;24.10;12.40;;;;;;;;;;5052214;28;20024;-64
2021/01/06 02:41:50;;;;;;;21.48;10.90;;;;;;;;;;5049877;28;20040;-64
2021/01/06 02:44:16;;;;;;;28.05;11.95;;;;;;;;;;5053406;28;20029;-64
2021/01/06 02:46:42;;;;;;;25.58;11.35;;;;;;;;;;5050489;28;20158;-64
2021/01/06 02:49:08;;;;;;;19.38;10.25;;;;;;;;;;5049026;28;20103;-65
2021/01/06 02:51:52;;;;;;;20.02;10.27;;;;;;;;;;5056131;28;20146;-64
2021/01/06 02:54:19;;;;;;;20.42;10.18;;;;;;;;;;5053289;28;20116;-65
2021/01/06 02:56:45;;;;;;;20.10;9.75;;;;;;;;;;5050626;28;20047;-64
2021/01/06 02:59:13;;;;;;;20.95;10.45;;;;;;;;;;5053480;28;20021;-67
2021/01/06 03:01:40;;;;;;;20.02;9.65;;;;;;;;;;5049082;28;20067;-64
2021/01/06 03:04:07;;;;;;;20.45;10.13;;;;;;;;;;5057383;28;20107;-66
2021/01/06 03:06:45;;;;;;;24.38;11.27;;;;;;;;;;5052725;28;20059;-64
2021/01/06 03:09:29;;;;;;;22.27;11.43;;;;;;;;;;5049449;28;20111;-65
2021/01/06 03:11:55;;;;;;;21.67;10.75;;;;;;;;;;5051843;28;20019;-65
2021/01/06 03:14:22;;;;;;;20.83;10.18;;;;;;;;;;5050698;28;20082;-65
2021/01/06 03:16:47;;;;;;;22.05;10.82;;;;;;;;;;5050031;28;20024;-64
2021/01/06 03:19:13;;;;;;;21.15;10.70;;;;;;;;;;5050468;28;20020;-66
2021/01/06 03:21:39;;;;;;;22.48;10.85;;;;;;;;;;5050381;28;20021;-66
2021/01/06 03:24:07;;;;;;;25.38;11.30;;;;;;;;;;5048755;28;20036;-66
2021/01/06 03:26:33;;;;;;;19.88;10.07;;;;;;;;;;5048972;28;20035;-65
2021/01/06 03:28:58;;;;;;;19.38;9.50;;;;;;;;;;5052368;28;20013;-65
2021/01/06 03:31:42;;;;;;;20.50;9.63;;;;;;;;;;5050424;28;20044;-66
2021/01/06 03:34:17;;;;;;;19.45;9.60;;;;;;;;;;5051291;28;20492;-66
2021/01/06 03:36:43;;;;;;;17.83;8.88;;;;;;;;;;5050715;28;20385;-65
2021/01/06 03:39:13;;;;;;;20.90;9.43;;;;;;;;;;5049582;28;20021;-65
2021/01/06 03:41:38;;;;;;;18.20;9.10;;;;;;;;;;5054873;22;20516;-68
2021/01/06 03:44:06;;;;;;;18.05;9.70;;;;;;;;;;5027216;28;20108;-67
2021/01/06 03:46:38;;;;;;;17.27;9.50;;;;;;;;;;5029093;28;20013;-67
2021/01/06 03:49:14;;;;;;;17.13;8.45;;;;;;;;;;5025472;28;20355;-67
2021/01/06 03:51:48;;;;;;;18.02;9.10;;;;;;;;;;5024752;28;20444;-67
2021/01/06 03:54:23;;;;;;;19.67;9.77;;;;;;;;;;5024449;28;20020;-67
2021/01/06 03:56:49;;;;;;;18.00;9.60;;;;;;;;;;5025488;28;20430;-67
2021/01/06 03:59:17;;;;;;;16.55;8.05;;;;;;;;;;5028800;28;20090;-67
2021/01/06 04:01:49;;;;;;;16.85;8.93;;;;;;;;;;5029811;28;20779;-67
2021/01/06 04:04:24;;;;;;;17.05;8.82;;;;;;;;;;5028821;28;20124;-67
2021/01/06 04:06:50;;;;;;;15.88;8.70;;;;;;;;;;5026431;28;20531;-67
2021/01/06 04:09:18;;;;;;;17.25;9.15;;;;;;;;;;5025234;28;20185;-67
2021/01/06 04:11:46;;;;;;;16.27;7.90;;;;;;;;;;5026798;28;20629;-67
2021/01/06 04:14:11;;;;;;;15.02;7.88;;;;;;;;;;5027304;28;20104;-67
2021/01/06 04:16:36;;;;;;;16.25;8.38;;;;;;;;;;5024601;28;20096;-67
2021/01/06 04:19:01;;;;;;;16.80;8.48;;;;;;;;;;5024928;28;20075;-67
2021/01/06 04:21:29;;;;;;;14.32;7.30;;;;;;;;;;5027542;28;20048;-67
2021/01/06 04:23:54;;;;;;;14.88;8.27;;;;;;;;;;5027092;28;20029;-67
2021/01/06 04:26:20;;;;;;;16.90;8.18;;;;;;;;;;5026206;28;20036;-67
2021/01/06 04:28:45;;;;;;;15.73;7.78;;;;;;;;;;5024215;28;20036;-67
2021/01/06 04:31:16;;;;;;;14.30;8.10;;;;;;;;;;5029040;28;20521;-68
2021/01/06 04:33:44;;;;;;;15.88;7.72;;;;;;;;;;5025267;28;20108;-68
2021/01/06 04:36:19;;;;;;;19.80;8.30;;;;;;;;;;5028494;28;20026;-68
2021/01/06 04:38:46;;;;;;;17.42;7.88;;;;;;;;;;5028208;28;20044;-68
2021/01/06 04:41:29;;;;;;;17.65;8.63;;;;;;;;;;5027381;28;20025;-68
2021/01/06 04:44:05;;;;;;;14.10;7.82;;;;;;;;;;5027899;28;20474;-69
2021/01/06 04:46:49;;;;;;;14.68;7.07;;;;;;;;;;5025679;28;20063;-68
2021/01/06 04:49:31;;;;;;;14.57;7.03;;;;;;;;;;5026210;28;20470;-68
2021/01/06 04:52:03;;;;;;;17.95;7.68;;;;;;;;;;5029424;28;20029;-68
2021/01/06 04:54:31;;;;;;;16.80;8.13;;;;;;;;;;5027081;28;20025;-68
2021/01/06 04:56:59;;;;;;;15.18;7.35;;;;;;;;;;5028127;28;20026;-68
2021/01/06 04:59:39;;;;;;;19.35;8.70;;;;;;;;;;5026739;28;20021;-68
2021/01/06 05:02:04;;;;;;;;;;;;;;;;;;5028279;28;20553;-68
2021/01/06 05:04:53;;;;;;;24.67;7.88;;;;;;;;;;5026391;28;20404;-68
2021/01/06 05:07:30;;;;;;;20.42;7.43;;;;;;;;;;5023744;28;20033;-67
2021/01/06 05:10:04;;;;;;;16.48;8.00;;;;;;;;;;5024081;28;20025;-68
2021/01/06 05:12:42;;;;;;;18.05;8.98;;;;;;;;;;5025474;28;20099;-67
2021/01/06 05:15:10;;;;;;;22.48;8.65;;;;;;;;;;5023723;28;20021;-67
2021/01/06 05:17:36;;;;;;;20.55;8.73;;;;;;;;;;5028050;28;20075;-67
2021/01/06 05:20:02;;;;;;;22.65;9.07;;;;;;;;;;5026624;28;20026;-67
2021/01/06 05:22:27;;;;;;;17.15;8.95;;;;;;;;;;5022627;28;20100;-68
2021/01/06 05:24:52;;;;;;;12.48;7.03;;;;;;;;;;5026554;28;20049;-68
2021/01/06 05:27:28;;;;;;;15.32;8.02;;;;;;;;;;5024913;28;20512;-68
2021/01/06 05:29:55;;;;;;;18.30;7.95;;;;;;;;;;5027830;28;20381;-68
2021/01/06 05:32:25;;;;;;;15.93;7.85;;;;;;;;;;5030047;28;20094;-68
2021/01/06 05:34:52;;;;;;;17.85;8.00;;;;;;;;;;5031383;28;20025;-68
2021/01/06 05:37:19;;;;;;;20.20;8.25;;;;;;;;;;5028461;28;20021;-68
2021/01/06 05:39:44;;;;;;;17.30;8.95;;;;;;;;;;5030133;28;20040;-68
2021/01/06 05:42:19;;;;;;;20.80;8.82;;;;;;;;;;5028555;28;20026;-68
2021/01/06 05:44:48;;;;;;;15.57;7.80;;;;;;;;;;5031737;28;20071;-68
2021/01/06 05:47:15;;;;;;;15.90;7.95;;;;;;;;;;5027645;28;20025;-68
2021/01/06 05:49:40;;;;;;;16.52;8.10;;;;;;;;;;5027200;28;20072;-68
2021/01/06 05:52:07;;;;;;;19.35;8.45;;;;;;;;;;5028632;28;20037;-68
2021/01/06 05:54:39;;;;;;;13.45;7.70;;;;;;;;;;5031024;28;20044;-68
2021/01/06 05:57:12;;;;;;;16.63;8.35;;;;;;;;;;5029111;28;20113;-68
2021/01/06 05:59:46;;;;;;;14.30;7.40;;;;;;;;;;5031653;28;20017;-69
2021/01/06 06:02:23;;;;;;;15.35;7.53;;;;;;;;;;5029423;28;20032;-68
2021/01/06 06:04:49;;;;;;;13.27;7.18;;;;;;;;;;5030572;28;20025;-68
2021/01/06 06:07:17;;;;;;;15.43;7.90;;;;;;;;;;5032141;28;20040;-68
2021/01/06 06:09:59;;;;;;;18.00;8.40;;;;;;;;;;5031161;28;20288;-68
2021/01/06 06:12:36;;;;;;;14.60;7.43;;;;;;;;;;5027298;28;20030;-68
2021/01/06 06:15:10;;;;;;;14.82;7.55;;;;;;;;;;5030952;28;20072;-68
2021/01/06 06:17:51;;;;;;;12.35;6.97;;;;;;;;;;5027027;28;20025;-68
2021/01/06 06:20:35;;;;;;;15.07;8.25;;;;;;;;;;5028977;28;20025;-68
2021/01/06 06:23:10;;;;;;;12.82;6.65;;;;;;;;;;5027191;28;20053;-68
2021/01/06 06:25:39;;;;;;;15.60;6.60;;;;;;;;;;5026157;28;20051;-68
2021/01/06 06:28:10;;;;;;;15.48;6.93;;;;;;;;;;5026092;28;20096;-68
2021/01/06 06:30:51;;;;;;;14.98;7.38;;;;;;;;;;5027537;28;20083;-68
2021/01/06 06:33:34;;;;;;;13.75;7.55;;;;;;;;;;5026360;28;20032;-68
2021/01/06 06:36:18;;;;;;;11.20;6.57;;;;;;;;;;5024290;28;20037;-68
2021/01/06 06:38:45;;;;;;;18.83;8.50;;;;;;;;;;5026559;28;20017;-68
2021/01/06 06:41:23;;;;;;;16.13;8.32;;;;;;;;;;5027419;28;20032;-68
2021/01/06 06:43:50;;;;;;;14.95;8.23;;;;;;;;;;5023606;28;20028;-68
2021/01/06 06:46:24;;;;;;;17.13;8.15;;;;;;;;;;5024428;28;20541;-68
2021/01/06 06:48:52;;;;;;;12.98;7.90;;;;;;;;;;5026970;28;20478;-68
2021/01/06 06:51:20;;;;;;;15.07;8.90;;;;;;;;;;5027264;28;20015;-68
2021/01/06 06:54:08;;;;;;;16.85;8.27;;;;;;;;;;5027312;28;20067;-68
2021/01/06 06:56:34;;;;;;;17.02;8.80;;;;;;;;;;5023231;28;20041;-68
2021/01/06 06:59:04;;;;;;;17.90;9.00;;;;;;;;;;5025323;28;20029;-68
2021/01/06 07:01:34;;;;;;;16.40;9.52;;;;;;;;;;5025683;28;20282;-68
2021/01/06 07:04:03;;;;;;;18.00;9.98;;;;;;;;;;5027292;28;20029;-68
2021/01/06 07:06:29;;;;;;;16.38;8.57;;;;;;;;;;5028611;28;20421;-68
2021/01/06 07:08:55;;;;;;;20.40;9.65;;;;;;;;;;5027199;28;20032;-68
2021/01/06 07:11:27;;;;;;;16.08;9.13;;;;;;;;;;5030220;28;20022;-68
2021/01/06 07:13:53;;;;;;;15.30;8.35;;;;;;;;;;5027706;28;20022;-68
2021/01/06 07:16:30;;;;;;;22.17;9.90;;;;;;;;;;5024751;28;20026;-68
2021/01/06 07:19:03;;;;;;;18.40;9.88;;;;;;;;;;5028115;28;20017;-68
2021/01/06 07:21:33;;;;;;;20.48;10.40;;;;;;;;;;5030381;28;20112;-68
2021/01/06 07:23:58;;;;;;;20.20;10.45;;;;;;;;;;5027737;28;20049;-68
2021/01/06 07:26:26;;;;;;;17.15;8.80;;;;;;;;;;5027878;28;20056;-68
2021/01/06 07:28:58;;;;;;;16.65;8.75;;;;;;;;;;5024949;28;20367;-68
2021/01/06 07:31:25;;;;;;;22.20;9.32;;;;;;;;;;5028937;28;20026;-68
2021/01/06 07:33:56;;;;;;;17.95;9.68;;;;;;;;;;5042230;28;20021;-68
2021/01/06 07:36:23;;;;;;;17.80;8.98;;;;;;;;;;5029779;28;20025;-68
2021/01/06 07:38:49;;;;;;;19.67;9.15;;;;;;;;;;5028212;28;20052;-68
2021/01/06 07:41:15;;;;;;;20.73;10.07;;;;;;;;;;5027903;28;20061;-68
2021/01/06 07:43:56;;;;;;;21.23;9.02;;;;;;;;;;5029076;28;20108;-68
2021/01/06 07:46:23;;;;;;;14.98;8.65;;;;;;;;;;5023639;28;20101;-68
2021/01/06 07:48:53;;;;;;;18.60;9.43;;;;;;;;;;5024785;28;20509;-68
2021/01/06 07:51:18;;;;;;;;;;;;;;;;;;5024716;28;20017;-68
2021/01/06 07:53:47;;;;;;;20.85;8.85;;;;;;;;;;5022314;28;20551;-68
2021/01/06 07:56:26;;;;;;;17.52;9.18;;;;;;;;;;5024382;28;20365;-68
2021/01/06 07:58:52;;;;;;;15.52;8.70;;;;;;;;;;5027718;28;20044;-68
2021/01/06 08:01:31;;;;;;;15.90;9.00;;;;;;;;;;5026098;28;20022;-68
2021/01/06 08:04:00;;;;;;;18.80;9.45;;;;;;;;;;5027376;28;20078;-68
2021/01/06 08:06:48;;;;;;;14.50;7.93;;;;;;;;;;5028304;28;20037;-68
2021/01/06 08:09:25;;;;;;;13.55;8.23;;;;;;;;;;5027141;28;20545;-68
2021/01/06 08:11:50;;;;;;;13.93;7.65;;;;;;;;;;5027311;28;20028;-68
2021/01/06 08:14:28;;;;;;;19.05;8.60;;;;;;;;;;5028496;28;20022;-68
2021/01/06 08:16:58;;;;;;;16.63;8.15;;;;;;;;;;5025155;28;20067;-68
2021/01/06 08:19:27;;;;;;;15.45;8.88;;;;;;;;;;5027588;28;20060;-68
2021/01/06 08:22:10;;;;;;;16.63;8.98;;;;;;;;;;5026631;28;20557;-68
2021/01/06 08:24:42;;;;;;;15.68;8.95;;;;;;;;;;5028177;28;20029;-68
2021/01/06 08:27:14;;;;;;;16.35;8.82;;;;;;;;;;5026468;28;20109;-68
2021/01/06 08:29:39;;;;;;;15.85;8.60;;;;;;;;;;5028020;28;20478;-68
2021/01/06 08:32:04;;;;;;;14.98;9.10;;;;;;;;;;5027850;28;20037;-68
2021/01/06 08:34:29;;;;;;;17.55;9.10;;;;;;;;;;5027715;28;20017;-68
2021/01/06 08:36:56;;;;;;;16.83;9.52;;;;;;;;;;5028129;28;20045;-68
2021/01/06 08:39:23;;;;;;;17.00;9.77;;;;;;;;;;5027743;28;20530;-68
2021/01/06 08:41:49;;;;;;;19.02;9.93;;;;;;;;;;5028718;28;20432;-69
2021/01/06 08:44:30;;;;;;;16.33;9.85;;;;;;;;;;5027643;28;20038;-69
2021/01/06 08:46:55;;;;;;;;;;;;;;;;;;5025800;28;20030;-69
2021/01/06 08:49:25;;;;;;;19.13;10.52;;;;;;;;;;5023551;28;20296;-68
2021/01/06 08:51:51;;;;;;;20.33;9.93;;;;;;;;;;5027643;28;20272;-68
2021/01/06 08:54:25;;;;;;;17.88;9.75;;;;;;;;;;5029294;28;20022;-68
2021/01/06 08:56:59;;;;;;;18.88;10.23;;;;;;;;;;5024927;28;20088;-69
2021/01/06 08:59:26;;;;;;;18.00;10.52;;;;;;;;;;5027803;28;20024;-70
2021/01/06 09:01:54;;;;;;;18.38;10.25;;;;;;;;;;5026864;28;20025;-67
2021/01/06 09:04:32;;;;;;;19.17;10.32;;;;;;;;;;5024989;28;20025;-67
2021/01/06 09:07:03;;;;;;;19.52;10.23;;;;;;;;;;5023186;28;20045;-70
2021/01/06 09:09:42;;;;;;;19.45;11.00;;;;;;;;;;5031415;28;20029;-70
2021/01/06 09:12:23;;;;;;;17.10;9.93;;;;;;;;;;5033270;28;20064;-70
2021/01/06 09:14:48;;;;;;;21.67;10.55;;;;;;;;;;5025396;28;20541;-69
2021/01/06 09:17:16;;;;;;;21.77;11.27;;;;;;;;;;5029525;28;20120;-70
2021/01/06 09:19:46;;;;;;;23.20;12.38;;;;;;;;;;5025799;28;20025;-70
2021/01/06 09:22:13;;;;;;;24.63;12.15;;;;;;;;;;5031444;28;20032;-70
2021/01/06 09:24:39;;;;;;;23.98;14.00;;;;;;;;;;5032017;28;20029;-70
2021/01/06 09:27:07;;;;;;;27.38;12.50;;;;;;;;;;5029609;28;20017;-70
2021/01/06 09:29:34;;;;;;;22.80;13.00;;;;;;;;;;5028807;28;20025;-70
2021/01/06 09:32:01;;;;;;;26.75;12.63;;;;;;;;;;5031538;28;20383;-70
2021/01/06 09:34:28;;;;;;;26.50;13.32;;;;;;;;;;5030145;28;20022;-69
2021/01/06 09:36:54;;;;;;;27.67;13.95;;;;;;;;;;5029672;28;20021;-69
2021/01/06 09:39:29;;;;;;;23.00;13.43;;;;;;;;;;5032680;28;20025;-69
2021/01/06 09:41:55;;;;;;;23.88;13.40;;;;;;;;;;5032506;28;20026;-66
2021/01/06 09:44:21;;;;;;;22.13;12.90;;;;;;;;;;5029284;28;20615;-68
2021/01/06 09:46:53;;;;;;;25.48;13.35;;;;;;;;;;5031548;28;20034;-68
2021/01/06 09:49:21;;;;;;;29.27;13.65;;;;;;;;;;5032117;28;20521;-68
2021/01/06 09:51:49;;;;;;;25.40;14.18;;;;;;;;;;5028601;28;20025;-68
2021/01/06 09:54:14;;;;;;;25.15;14.70;;;;;;;;;;5032507;28;20033;-68
2021/01/06 09:56:40;;;;;;;25.52;14.32;;;;;;;;;;5032861;28;20022;-68
2021/01/06 09:59:15;;;;;;;26.13;15.13;;;;;;;;;;5032406;28;20029;-68
2021/01/06 10:01:44;;;;;;;32.42;15.25;;;;;;;;;;5032604;28;20120;-68
2021/01/06 10:04:29;;;;;;;26.98;14.68;;;;;;;;;;5032025;28;20096;-69
2021/01/06 10:07:14;;;;;;;30.17;15.65;;;;;;;;;;5021303;28;20501;-69
2021/01/06 10:09:41;;;;;;;30.23;16.90;;;;;;;;;;5031833;28;20095;-68
2021/01/06 10:12:25;;;;;;;28.00;16.83;;;;;;;;;;5032155;28;20059;-68
2021/01/06 10:14:59;;;;;;;30.90;17.30;;;;;;;;;;5031555;28;20462;-68
2021/01/06 10:17:25;;;;;;;30.45;17.75;;;;;;;;;;5032429;28;20525;-69
2021/01/06 10:20:00;;;;;;;30.50;17.52;;;;;;;;;;5032012;28;20478;-69
2021/01/06 10:22:44;;;;;;;30.08;16.58;;;;;;;;;;5032567;28;20041;-69
2021/01/06 10:25:22;;;;;;;33.95;16.95;;;;;;;;;;5031541;28;20030;-69
2021/01/06 10:27:59;;;;;;;34.47;17.98;;;;;;;;;;5031613;28;20051;-69
2021/01/06 10:30:25;;;;;;;29.58;17.27;;;;;;;;;;5031420;28;20032;-69
2021/01/06 10:33:03;;;;;;;35.33;17.90;;;;;;;;;;5031218;28;20487;-69
2021/01/06 10:35:30;;;;;;;32.00;17.75;;;;;;;;;;5032873;28;20033;-69
2021/01/06 10:37:55;;;;;;;33.00;18.58;;;;;;;;;;5031472;28;20018;-69
2021/01/06 10:40:34;;;;;;;31.23;18.20;;;;;;;;;;5031981;28;20512;-69
2021/01/06 10:43:19;;;;;;;36.83;18.58;;;;;;;;;;5032625;28;20025;-69
2021/01/06 10:45:45;;;;;;;34.45;18.15;;;;;;;;;;5032046;28;20445;-69
2021/01/06 10:48:30;;;;;;;33.40;18.83;;;;;;;;;;5032080;28;20037;-69
2021/01/06 10:50:55;;;;;;;33.38;18.08;;;;;;;;;;5032137;28;20502;-69
2021/01/06 10:53:25;;;;;;;38.83;19.10;;;;;;;;;;5032398;28;20013;-69
2021/01/06 10:55:59;;;;;;;33.10;17.23;;;;;;;;;;5032116;28;20032;-69
2021/01/06 10:58:28;;;;;;;32.97;17.45;;;;;;;;;;5032317;28;20475;-68
2021/01/06 11:01:09;;;;;;;30.27;16.63;;;;;;;;;;5031163;28;20033;-68
2021/01/06 11:03:51;;;;;;;31.67;15.35;;;;;;;;;;5031799;28;20021;-68
2021/01/06 11:06:17;;;;;;;33.47;15.35;;;;;;;;;;5031300;28;20517;-68
2021/01/06 11:08:42;;;;;;;28.17;13.70;;;;;;;;;;5030693;28;20112;-68
2021/01/06 11:11:10;;;;;;;27.45;15.00;;;;;;;;;;5031070;28;20656;-68
2021/01/06 11:13:41;;;;;;;28.60;14.98;;;;;;;;;;5031514;28;20651;-68
2021/01/06 11:16:09;;;;;;;29.70;14.48;;;;;;;;;;5030939;28;20393;-68
2021/01/06 11:18:39;;;;;;;28.60;15.18;;;;;;;;;;5030784;28;20018;-68
2021/01/06 11:21:18;;;;;;;28.67;14.87;;;;;;;;;;5031270;28;20039;-68
2021/01/06 11:23:46;;;;;;;29.55;14.40;;;;;;;;;;5031054;28;20355;-68
2021/01/06 11:26:20;;;;;;;26.02;14.27;;;;;;;;;;5031224;28;20021;-68
2021/01/06 11:29:05;;;;;;;25.25;13.50;;;;;;;;;;5030835;28;20358;-68
2021/01/06 11:31:31;;;;;;;30.00;14.93;;;;;;;;;;5030949;28;20033;-68
2021/01/06 11:33:58;;;;;;;29.20;13.20;;;;;;;;;;5030906;28;20048;-68
2021/01/06 11:36:42;;;;;;;24.25;13.45;;;;;;;;;;5031184;28;20423;-68
2021/01/06 11:39:09;;;;;;;28.48;14.50;;;;;;;;;;5029824;28;20029;-68
2021/01/06 11:41:34;;;;;;;26.65;13.60;;;;;;;;;;5030801;28;20459;-67
2021/01/06 11:44:19;;;;;;;26.15;14.57;;;;;;;;;;5030957;28;20029;-67
2021/01/06 11:47:02;;;;;;;31.85;16.30;;;;;;;;;;5030732;28;20266;-67
2021/01/06 11:49:36;;;;;;;33.13;15.65;;;;;;;;;;5031534;28;20359;-67
2021/01/06 11:52:21;;;;;;;29.90;16.30;;;;;;;;;;5031119;28;20017;-67
2021/01/06 11:54:48;;;;;;;32.53;15.80;;;;;;;;;;5031043;28;20025;-67
2021/01/06 11:57:19;;;;;;;30.83;16.15;;;;;;;;;;5030539;28;20013;-67
2021/01/06 11:59:59;;;;;;;29.88;14.98;;;;;;;;;;5030509;28;20501;-67
2021/01/06 12:02:27;;;;;;;31.25;15.95;;;;;;;;;;5030731;28;20037;-67
2021/01/06 12:04:55;;;;;;;36.95;16.20;;;;;;;;;;5030437;28;20033;-67
2021/01/06 12:07:31;;;;;;;34.10;15.90;;;;;;;;;;5030752;28;20104;-67
2021/01/06 12:10:20;;;;;;;30.38;15.60;;;;;;;;;;5030653;28;20229;-67
2021/01/06 12:12:54;;;;;;;31.90;16.25;;;;;;;;;;5030842;28;20074;-67
2021/01/06 12:15:40;;;;;;;31.65;16.50;;;;;;;;;;5030219;28;20775;-67
2021/01/06 12:18:12;;;;;;;30.25;16.02;;;;;;;;;;5029934;28;20037;-68
2021/01/06 12:20:45;;;;;;;29.83;15.13;;;;;;;;;;5030405;28;20091;-67
2021/01/06 12:23:18;;;;;;;32.28;16.48;;;;;;;;;;5030505;28;20025;-67
2021/01/06 12:25:47;;;;;;;31.52;14.68;;;;;;;;;;5026030;28;20071;-67
2021/01/06 12:28:31;;;;;;;29.08;14.93;;;;;;;;;;5025532;28;20356;-67
2021/01/06 12:31:08;;;;;;;28.98;15.30;;;;;;;;;;5025410;28;20022;-67
2021/01/06 12:33:36;;;;;;;30.15;15.75;;;;;;;;;;5015210;28;20052;-67
2021/01/06 12:36:06;;;;;;;32.20;16.38;;;;;;;;;;5029893;28;20550;-67
2021/01/06 12:38:31;;;;;;;28.23;15.60;;;;;;;;;;5029329;28;20033;-67
2021/01/06 12:40:59;;;;;;;29.17;15.65;;;;;;;;;;5030644;28;20037;-67
2021/01/06 12:43:27;;;;;;;27.88;16.05;;;;;;;;;;5030590;28;20029;-67
2021/01/06 12:45:59;;;;;;;34.67;16.08;;;;;;;;;;5030084;28;20497;-67
2021/01/06 12:48:27;;;;;;;30.52;15.85;;;;;;;;;;5030156;28;20033;-67
2021/01/06 12:50:56;;;;;;;30.95;16.67;;;;;;;;;;5029451;28;20029;-67
2021/01/06 12:53:24;;;;;;;31.13;16.33;;;;;;;;;;5030110;28;20083;-67
2021/01/06 12:55:52;;;;;;;31.90;16.48;;;;;;;;;;5028738;28;20018;-67
2021/01/06 12:58:39;;;;;;;33.42;17.15;;;;;;;;;;5029948;28;20096;-67
2021/01/06 13:01:06;;;;;;;29.48;15.80;;;;;;;;;;5008907;28;20525;-67
2021/01/06 13:03:35;;;;;;;33.35;17.83;;;;;;;;;;5030555;28;20056;-67
2021/01/06 13:06:12;;;;;;;27.15;14.57;;;;;;;;;;5029280;28;20010;-67
2021/01/06 13:08:58;;;;;;;33.80;16.48;;;;;;;;;;5028478;28;20027;-67
2021/01/06 13:11:28;;;;;;;28.30;15.55;;;;;;;;;;5004973;28;20038;-67
2021/01/06 13:14:23;;;;;;;31.98;16.45;;;;;;;;;;5030438;28;20048;-68
2021/01/06 13:16:54;;;;;;;30.65;15.68;;;;;;;;;;4983785;28;20074;-67
2021/01/06 13:19:19;;;;;;;30.00;15.93;;;;;;;;;;5030138;28;20394;-67
2021/01/06 13:21:58;;;;;;;28.00;15.70;;;;;;;;;;5029888;28;20013;-67
2021/01/06 13:24:26;;;;;;;32.00;16.13;;;;;;;;;;5028849;28;20024;-67
2021/01/06 13:26:51;;;;;;;30.42;16.98;;;;;;;;;;5029592;28;20032;-67
2021/01/06 13:29:17;;;;;;;32.63;16.77;;;;;;;;;;5029753;28;20021;-67
2021/01/06 13:31:42;;;;;;;35.20;18.20;;;;;;;;;;5030053;28;20248;-68
2021/01/06 13:34:26;;;;;;;36.03;18.88;;;;;;;;;;5028533;28;20264;-67
2021/01/06 13:36:56;;;;;;;34.10;19.02;;;;;;;;;;5026937;28;20029;-67
2021/01/06 13:39:22;;;;;;;39.33;21.30;;;;;;;;;;5028068;28;20079;-67
2021/01/06 13:41:47;;;;;;;41.13;21.95;;;;;;;;;;5021346;28;20029;-68
2021/01/06 13:44:25;;;;;;;48.45;20.52;;;;;;;;;;5028450;28;20347;-67
2021/01/06 13:46:52;;;;;;;44.92;21.35;;;;;;;;;;5020920;28;20112;-67
2021/01/06 13:49:26;;;;;;;41.72;20.90;;;;;;;;;;5027045;28;20037;-67
2021/01/06 13:52:05;;;;;;;41.53;20.70;;;;;;;;;;5023366;28;20022;-67
2021/01/06 13:54:50;;;;;;;41.13;21.40;;;;;;;;;;5031724;28;20025;-68
2021/01/06 13:57:18;;;;;;;41.95;22.70;;;;;;;;;;5018766;28;20029;-67
2021/01/06 14:00:09;;;;;;;44.80;21.80;;;;;;;;;;5024963;28;20029;-67
2021/01/06 14:02:34;;;;;;;42.92;20.48;;;;;;;;;;5030909;28;20017;-67
2021/01/06 14:05:02;;;;;;;37.05;19.77;;;;;;;;;;5030214;28;20030;-67
2021/01/06 14:07:46;;;;;;;41.45;19.90;;;;;;;;;;5025149;28;20351;-67
2021/01/06 14:10:16;;;;;;;37.15;18.17;;;;;;;;;;5031500;28;20552;-67
2021/01/06 14:13:02;;;;;;;40.05;18.98;;;;;;;;;;5024765;28;20037;-67
2021/01/06 14:15:49;;;;;;;47.53;18.52;;;;;;;;;;5032919;28;20021;-67
2021/01/06 14:18:18;;;;;;;38.35;19.50;;;;;;;;;;5026528;28;20017;-67
2021/01/06 14:20:43;;;;;;;38.45;20.40;;;;;;;;;;5026579;28;20022;-67
2021/01/06 14:23:08;;;;;;;36.22;19.90;;;;;;;;;;5032145;28;20021;-67
2021/01/06 14:25:37;;;;;;;39.72;20.73;;;;;;;;;;5024003;28;20272;-67
2021/01/06 14:28:21;;;;;;;42.00;20.15;;;;;;;;;;5027444;28;20271;-68
2021/01/06 14:30:55;;;;;;;41.67;21.30;;;;;;;;;;5029301;28;20500;-68
2021/01/06 14:33:22;;;;;;;38.55;19.50;;;;;;;;;;5031777;28;20470;-68
2021/01/06 14:35:53;;;;;;;43.72;20.90;;;;;;;;;;5029648;28;20014;-67
2021/01/06 14:38:27;;;;;;;47.47;21.80;;;;;;;;;;5026420;28;20032;-68
2021/01/06 14:41:15;;;;;;;40.85;21.00;;;;;;;;;;5026211;28;20037;-67
2021/01/06 14:43:40;;;;;;;43.33;20.38;;;;;;;;;;5030263;28;20038;-67
2021/01/06 14:46:11;;;;;;;41.08;20.83;;;;;;;;;;5030813;28;20029;-68